Time;durP1;ratioP1;P1;durP2;ratioP2;P2;SDS_P1;SDS_P2;PMS_P1;PMS_P2;Temp;Humidity;BMP_temperature;BMP_pressure;BME280_temperature;BME280_humidity;BME280_pressure;Samples;Min_cycle;Max_cycle;Signal;HPM_P1;HPM_P2
2022/09/14 00:04:50;;;;;;;1.80;1.17;;;22.10;63.80;;;;;;10126627;29;20523;-54
2022/09/14 00:09:51;;;;;;;2.40;1.40;;;22.10;63.80;;;;;;10109387;29;20048;-53
2022/09/14 00:14:52;;;;;;;1.85;1.10;;;22.10;63.80;;;;;;10109883;29;20058;-54
2022/09/14 00:19:52;;;;;;;1.55;1.00;;;22.10;63.70;;;;;;10126067;29;20063;-54
2022/09/14 00:24:53;;;;;;;3.05;1.00;;;22.10;63.70;;;;;;10126046;29;20119;-54
2022/09/14 00:29:54;;;;;;;1.85;1.20;;;22.10;63.70;;;;;;10108974;29;20127;-55
2022/09/14 00:34:54;;;;;;;2.13;1.40;;;22.10;63.70;;;;;;10125992;29;20064;-54
2022/09/14 00:39:55;;;;;;;1.17;0.90;;;22.10;63.60;;;;;;10125126;29;20444;-53
2022/09/14 00:45:17;;;;;;;2.67;1.10;;;22.10;63.60;;;;;;10125504;29;20037;-54
2022/09/14 00:50:19;;;;;;;1.33;0.80;;;22.10;63.60;;;;;;10110293;29;20384;-53
2022/09/14 00:55:22;;;;;;;2.65;0.88;;;22.10;63.60;;;;;;10125137;29;20053;-52
2022/09/14 01:00:28;;;;;;;2.60;1.10;;;22.10;63.50;;;;;;10108798;29;20076;-53
2022/09/14 01:05:44;;;;;;;3.63;1.30;;;22.00;63.40;;;;;;10125566;29;20473;-54
2022/09/14 01:10:58;;;;;;;4.90;1.25;;;22.00;63.40;;;;;;10125609;29;20496;-54
2022/09/14 01:16:20;;;;;;;1.75;0.98;;;22.00;63.40;;;;;;10125779;29;20040;-54
2022/09/14 01:21:29;;;;;;;1.30;1.00;;;22.00;63.30;;;;;;10137881;29;20499;-53
2022/09/14 01:27:00;;;;;;;2.77;1.10;;;22.00;63.30;;;;;;10125396;29;20035;-54
2022/09/14 01:32:20;;;;;;;1.98;1.00;;;22.00;63.30;;;;;;10125211;29;20033;-55
2022/09/14 01:37:39;;;;;;;2.47;1.10;;;22.00;63.30;;;;;;10108276;29;20028;-53
2022/09/14 01:42:44;;;;;;;1.73;0.90;;;22.00;63.30;;;;;;10107189;29;20052;-54
2022/09/14 01:47:53;;;;;;;5.00;0.95;;;22.00;63.20;;;;;;10122895;29;20037;-55
2022/09/14 01:53:04;;;;;;;2.65;1.00;;;22.00;63.30;;;;;;10126212;29;20043;-54
2022/09/14 01:58:21;;;;;;;3.28;1.20;;;22.00;63.20;;;;;;10115354;29;20056;-54
2022/09/14 02:03:28;;;;;;;3.25;1.08;;;22.00;63.20;;;;;;10115179;29;20040;-55
2022/09/14 02:08:30;;;;;;;2.40;0.90;;;22.00;63.20;;;;;;10114688;29;20033;-54
2022/09/14 02:13:32;;;;;;;2.03;1.52;;;22.00;63.20;;;;;;10131271;29;20064;-54
2022/09/14 02:18:33;;;;;;;2.15;1.05;;;22.00;63.20;;;;;;10113469;29;20068;-53
2022/09/14 02:23:37;;;;;;;2.70;1.15;;;22.00;63.20;;;;;;10114247;29;20025;-55
2022/09/14 02:28:37;;;;;;;1.83;0.90;;;21.90;63.10;;;;;;10130759;29;20139;-53
2022/09/14 02:34:12;;;;;;;3.05;1.10;;;21.90;63.10;;;;;;10130033;29;20040;-54
2022/09/14 02:39:46;;;;;;;2.17;1.42;;;21.90;63.00;;;;;;10130187;29;20056;-54
2022/09/14 02:45:02;;;;;;;1.92;1.00;;;21.90;63.00;;;;;;10129653;29;20040;-54
2022/09/14 02:50:23;;;;;;;3.20;1.58;;;21.90;63.00;;;;;;10113597;29;20040;-54
2022/09/14 02:55:28;;;;;;;2.38;1.25;;;21.90;63.00;;;;;;10113840;29;20059;-54
2022/09/14 03:00:32;;;;;;;1.73;1.00;;;21.90;63.00;;;;;;10112586;29;20033;-55
2022/09/14 03:05:33;;;;;;;2.42;0.93;;;21.90;63.00;;;;;;10099906;29;20033;-54
2022/09/14 03:10:34;;;;;;;1.10;1.00;;;21.90;63.00;;;;;;10096431;29;20749;-54
2022/09/14 03:15:34;;;;;;;1.58;1.30;;;21.90;63.00;;;;;;10128767;29;20025;-53
2022/09/14 03:20:35;;;;;;;2.13;1.27;;;21.90;63.00;;;;;;10128423;29;20424;-54
2022/09/14 03:25:42;;;;;;;2.08;1.35;;;21.90;63.00;;;;;;10128462;29;20032;-55
2022/09/14 03:30:42;;;;;;;2.92;1.10;;;21.90;62.90;;;;;;10111615;29;20052;-55
2022/09/14 03:35:43;;;;;;;2.90;1.10;;;21.80;62.90;;;;;;10128095;29;20188;-56
2022/09/14 03:40:44;;;;;;;2.85;1.10;;;21.90;62.90;;;;;;10127921;29;20153;-54
2022/09/14 03:45:44;;;;;;;2.20;0.90;;;21.90;63.00;;;;;;10110958;29;20096;-54
2022/09/14 03:50:45;;;;;;;1.75;1.20;;;21.90;63.00;;;;;;10127108;29;20079;-54
2022/09/14 03:55:46;;;;;;;2.25;1.27;;;21.90;63.00;;;;;;10126629;29;20054;-54
2022/09/14 04:00:46;;;;;;;2.47;1.05;;;21.90;63.00;;;;;;10110556;29;20056;-55
2022/09/14 04:05:55;;;;;;;1.85;1.02;;;21.80;63.00;;;;;;10126902;29;20056;-54
2022/09/14 04:10:55;;;;;;;2.77;1.37;;;21.80;63.00;;;;;;10110201;29;20803;-54
2022/09/14 04:15:58;;;;;;;2.17;1.10;;;21.80;63.60;;;;;;10107952;29;20139;-53
2022/09/14 04:21:03;;;;;;;1.70;0.90;;;21.80;63.00;;;;;;10124883;29;20040;-55
2022/09/14 04:26:17;;;;;;;2.17;1.17;;;21.80;63.00;;;;;;10124827;29;20116;-54
2022/09/14 04:31:18;;;;;;;3.17;1.60;;;21.80;63.00;;;;;;10106323;29;20048;-54
2022/09/14 04:36:21;;;;;;;1.60;1.13;;;21.80;63.00;;;;;;10122939;29;20059;-54
2022/09/14 04:41:22;;;;;;;3.85;1.02;;;21.80;63.00;;;;;;10124970;29;20029;-55
2022/09/14 04:46:27;;;;;;;1.35;0.85;;;21.70;63.00;;;;;;10124353;29;20112;-54
2022/09/14 04:51:31;;;;;;;1.50;0.95;;;21.70;63.00;;;;;;10091667;29;20520;-55
2022/09/14 04:56:35;;;;;;;1.83;1.08;;;21.80;63.00;;;;;;10125435;29;20079;-55
2022/09/14 05:01:40;;;;;;;2.65;0.93;;;21.80;63.00;;;;;;10107017;29;20036;-55
2022/09/14 05:06:43;;;;;;;2.47;1.10;;;21.80;63.00;;;;;;10123037;29;20044;-55
2022/09/14 05:11:44;;;;;;;5.18;1.13;;;21.80;63.20;;;;;;10121717;29;20689;-52
2022/09/14 05:16:46;;;;;;;10.50;1.98;;;21.80;63.60;;;;;;10106874;29;20068;-53
2022/09/14 05:21:47;;;;;;;7.07;1.83;;;21.80;63.40;;;;;;10121213;29;20029;-52
2022/09/14 05:26:52;;;;;;;3.30;1.33;;;21.80;63.70;;;;;;10127271;29;20477;-52
2022/09/14 05:31:52;;;;;;;7.10;1.48;;;21.90;64.00;;;;;;10129627;29;20373;-52
2022/09/14 05:36:53;;;;;;;7.25;1.70;;;21.90;64.20;;;;;;10131492;29;20148;-52
2022/09/14 05:41:53;;;;;;;9.25;1.40;;;21.90;64.30;;;;;;10131869;29;20116;-48
2022/09/14 05:46:54;;;;;;;8.23;1.80;;;21.90;64.00;;;;;;10115174;29;20585;-52
2022/09/14 05:51:55;;;;;;;10.10;2.03;;;21.80;64.20;;;;;;10114287;29;20072;-51
2022/09/14 05:56:55;;;;;;;13.23;3.05;;;21.80;64.70;;;;;;10130483;29;20139;-51
2022/09/14 06:01:58;;;;;;;11.55;3.05;;;21.80;64.80;;;;;;10113240;29;20115;-52
2022/09/14 06:06:59;;;;;;;9.43;2.13;;;21.80;64.80;;;;;;10114394;29;20040;-51
2022/09/14 06:11:59;;;;;;;14.82;2.47;;;21.80;64.80;;;;;;10129360;29;20075;-52
2022/09/14 06:17:01;;;;;;;12.45;2.40;;;21.80;64.90;;;;;;10129377;29;20112;-52
2022/09/14 06:22:02;;;;;;;5.25;1.48;;;21.80;64.90;;;;;;10131690;29;20052;-52
2022/09/14 06:27:03;;;;;;;7.63;2.08;;;21.80;64.50;;;;;;10136576;29;20033;-51
2022/09/14 06:32:04;;;;;;;6.10;1.58;;;21.80;64.20;;;;;;10130473;29;20092;-52
2022/09/14 06:37:05;;;;;;;6.43;1.50;;;21.80;64.10;;;;;;10129740;29;20036;-51
2022/09/14 06:42:05;;;;;;;3.80;1.67;;;21.80;64.10;;;;;;10121983;29;20116;-50
2022/09/14 06:47:06;;;;;;;4.82;2.03;;;21.80;64.20;;;;;;10124711;29;20037;-51
2022/09/14 06:52:07;;;;;;;4.45;1.50;;;21.80;64.50;;;;;;10129863;29;20077;-53
2022/09/14 06:57:08;;;;;;;9.57;2.47;;;21.70;64.50;;;;;;10127295;29;20064;-52
2022/09/14 07:02:10;;;;;;;7.25;2.10;;;21.70;64.50;;;;;;10112022;29;20126;-52
2022/09/14 07:07:14;;;;;;;7.68;2.05;;;21.70;64.60;;;;;;10099554;29;20467;-55
2022/09/14 07:12:15;;;;;;;11.93;1.95;;;21.70;64.40;;;;;;10123054;29;20037;-55
2022/09/14 07:17:16;;;;;;;10.60;2.13;;;21.80;64.50;;;;;;10130280;29;20049;-54
2022/09/14 07:22:16;;;;;;;8.25;2.60;;;21.70;64.60;;;;;;10110520;29;20105;-55
2022/09/14 07:27:17;;;;;;;5.95;1.88;;;21.70;64.60;;;;;;10113690;29;20052;-59
2022/09/14 07:32:18;;;;;;;5.43;1.83;;;21.70;64.60;;;;;;10122859;29;20111;-58
2022/09/14 07:37:18;;;;;;;15.52;2.25;;;21.70;64.40;;;;;;10124031;29;20065;-57
2022/09/14 07:42:19;;;;;;;7.13;1.83;;;21.70;64.50;;;;;;10127594;29;20079;-56
2022/09/14 07:47:20;;;;;;;2.22;1.15;;;21.70;64.30;;;;;;10127414;29;20112;-58
2022/09/14 07:52:21;;;;;;;3.42;1.40;;;21.70;64.20;;;;;;10123347;29;20644;-57
2022/09/14 07:57:21;;;;;;;3.33;1.50;;;21.70;64.00;;;;;;10111669;29;20079;-57
2022/09/14 08:02:23;;;;;;;2.20;0.93;;;21.70;64.00;;;;;;10123272;29;20111;-57
2022/09/14 08:07:23;;;;;;;2.97;1.45;;;21.70;64.00;;;;;;10105326;29;20209;-58
2022/09/14 08:12:24;;;;;;;4.03;1.17;;;21.70;64.00;;;;;;10104939;29;20068;-56
2022/09/14 08:17:25;;;;;;;2.70;1.17;;;21.70;64.00;;;;;;10128834;29;20037;-58
2022/09/14 08:22:26;;;;;;;5.13;1.63;;;21.70;64.00;;;;;;10123598;29;20445;-57
2022/09/14 08:27:27;;;;;;;1.85;1.25;;;21.60;64.00;;;;;;10108132;29;20381;-55
2022/09/14 08:32:27;;;;;;;2.25;1.13;;;21.70;64.00;;;;;;10124097;29;20072;-55
2022/09/14 08:37:28;;;;;;;2.88;1.10;;;21.60;63.90;;;;;;10111607;29;20135;-55
2022/09/14 08:42:29;;;;;;;6.28;1.60;;;21.70;64.00;;;;;;10100540;29;20041;-57
2022/09/14 08:47:37;;;;;;;6.25;2.00;;;21.60;64.50;;;;;;10093977;29;20040;-53
2022/09/14 08:52:44;;;;;;;4.80;1.80;;;21.60;64.50;;;;;;10105470;29;20415;-58
2022/09/14 08:58:00;;;;;;;1.55;1.05;;;21.60;64.70;;;;;;10122742;29;20045;-55
2022/09/14 09:03:49;;;;;;;4.95;1.45;;;21.60;64.50;;;;;;10131731;29;20388;-55
2022/09/14 09:09:22;;;;;;;8.60;2.35;;;21.60;64.30;;;;;;10120773;29;20037;-55
2022/09/14 09:14:42;;;;;;;11.90;2.08;;;21.60;65.10;;;;;;10134411;29;20044;-55
2022/09/14 09:19:52;;;;;;;7.18;1.95;;;21.60;65.10;;;;;;10119022;29;20108;-57
2022/09/14 09:24:54;;;;;;;2.78;1.45;;;21.60;65.40;;;;;;10135657;29;20033;-56
2022/09/14 09:29:54;;;;;;;3.67;1.40;;;21.60;65.30;;;;;;10135274;29;20029;-54
2022/09/14 09:34:55;;;;;;;4.80;1.48;;;21.60;64.90;;;;;;10101627;29;20556;-57
2022/09/14 09:39:56;;;;;;;6.53;1.52;;;21.60;64.80;;;;;;10116357;29;20516;-54
2022/09/14 09:45:04;;;;;;;4.32;1.52;;;21.60;65.00;;;;;;10116724;29;20393;-55
2022/09/14 09:50:20;;;;;;;5.37;1.40;;;21.60;65.10;;;;;;10135100;29;20472;-55
2022/09/14 09:55:27;;;;;;;1.95;1.05;;;21.60;64.80;;;;;;10116044;29;20051;-56
2022/09/14 10:00:31;;;;;;;3.60;0.82;;;21.60;64.60;;;;;;10132789;29;20091;-55
2022/09/14 10:05:32;;;;;;;1.85;1.02;;;21.60;64.50;;;;;;10134632;29;20524;-56
2022/09/14 10:10:38;;;;;;;4.13;1.27;;;21.60;64.70;;;;;;10135251;29;20032;-56
2022/09/14 10:15:39;;;;;;;6.03;1.25;;;21.60;64.40;;;;;;10128620;29;20043;-57
2022/09/14 10:20:52;;;;;;;4.82;1.80;;;21.60;64.10;;;;;;10098569;29;20492;-56
2022/09/14 10:26:13;;;;;;;4.93;1.42;;;21.60;63.90;;;;;;10136669;29;20036;-57
2022/09/14 10:31:19;;;;;;;63.08;33.72;;;21.60;64.30;;;;;;10128018;29;20037;-57
2022/09/14 10:36:30;;;;;;;10.70;6.95;;;21.70;68.00;;;;;;10113253;29;20044;-58
2022/09/14 10:41:51;;;;;;;8.80;5.75;;;21.70;65.80;;;;;;10122584;29;20061;-57
2022/09/14 10:47:18;;;;;;;12.95;8.10;;;21.70;65.80;;;;;;10119979;29;20088;-58
2022/09/14 10:52:55;;;;;;;9.65;5.45;;;21.70;66.00;;;;;;10123845;29;20043;-56
2022/09/14 10:58:16;;;;;;;9.75;5.95;;;21.60;66.00;;;;;;10120642;29;20072;-55
2022/09/14 11:03:50;;;;;;;11.27;6.70;;;21.70;65.90;;;;;;10121233;29;20383;-55
2022/09/14 11:09:00;;;;;;;15.38;6.13;;;21.60;65.80;;;;;;10118527;29;20025;-56
2022/09/14 11:14:11;;;;;;;9.25;5.88;;;21.60;65.90;;;;;;10104748;29;20027;-56
2022/09/14 11:19:41;;;;;;;12.18;5.25;;;21.60;66.00;;;;;;10097505;29;20469;-57
2022/09/14 11:24:53;;;;;;;11.40;4.72;;;21.70;66.60;;;;;;10109315;29;20061;-57
2022/09/14 11:30:04;;;;;;;10.88;5.18;;;21.60;66.50;;;;;;10125159;29;20037;-55
2022/09/14 11:35:24;;;;;;;9.48;4.13;;;21.60;66.30;;;;;;10117776;29;20025;-57
2022/09/14 11:40:50;;;;;;;10.50;5.15;;;21.60;66.60;;;;;;10106305;29;20045;-58
2022/09/14 11:46:05;;;;;;;10.35;4.88;;;21.60;66.20;;;;;;10125622;29;20647;-57
2022/09/14 11:51:14;;;;;;;7.72;3.88;;;21.50;66.10;;;;;;10109503;29;20043;-56
2022/09/14 11:56:29;;;;;;;;;;;21.50;66.10;;;;;;10109525;29;20048;-57
2022/09/14 12:01:38;;;;;;;4.95;3.20;;;21.50;66.00;;;;;;10109495;29;20386;-57
2022/09/14 12:06:38;;;;;;;7.53;4.38;;;21.50;66.00;;;;;;10108082;29;20025;-57
2022/09/14 12:11:41;;;;;;;9.45;4.45;;;21.50;66.00;;;;;;10124711;29;20037;-57
2022/09/14 12:17:33;;;;;;;8.70;3.78;;;21.50;65.90;;;;;;10107287;29;20044;-57
2022/09/14 12:22:36;;;;;;;6.10;2.58;;;21.50;66.00;;;;;;10127276;29;20047;-54
2022/09/14 12:27:41;;;;;;;11.48;3.63;;;21.60;66.20;;;;;;10119572;29;20492;-57
2022/09/14 12:32:42;;;;;;;9.25;4.72;;;21.60;66.20;;;;;;10105381;29;20033;-57
2022/09/14 12:37:43;;;;;;;9.02;3.65;;;21.70;66.50;;;;;;10105629;29;20068;-56
2022/09/14 12:42:43;;;;;;;9.45;3.15;;;21.70;66.50;;;;;;10122641;29;20127;-54
2022/09/14 12:47:51;;;;;;;7.90;3.22;;;21.70;66.60;;;;;;10092669;29;20145;-56
2022/09/14 12:53:13;;;;;;;5.75;3.03;;;21.70;66.70;;;;;;10122948;29;20927;-56
2022/09/14 12:58:49;;;;;;;7.35;3.63;;;21.70;66.50;;;;;;10084019;29;20041;-55
2022/09/14 13:03:53;;;;;;;15.98;5.22;;;21.60;66.60;;;;;;10058140;29;20033;-54
2022/09/14 13:08:57;;;;;;;28.92;5.15;;;21.60;66.60;;;;;;10083215;29;20040;-54
2022/09/14 13:13:59;;;;;;;25.98;4.75;;;21.60;66.40;;;;;;10059946;29;20462;-54
2022/09/14 13:19:03;;;;;;;20.50;3.65;;;21.60;66.40;;;;;;10104200;29;20124;-54
2022/09/14 13:24:51;;;;;;;17.92;3.92;;;22.00;65.40;;;;;;10069873;29;20033;-53
2022/09/14 13:30:38;;;;;;;27.38;4.47;;;21.80;66.10;;;;;;10072559;29;20041;-54
2022/09/14 13:35:52;;;;;;;16.40;4.25;;;21.90;66.40;;;;;;10002775;29;20092;-53
2022/09/14 13:41:01;;;;;;;17.90;4.35;;;21.70;66.60;;;;;;10093961;29;20425;-54
2022/09/14 13:46:09;;;;;;;20.73;5.35;;;21.70;66.50;;;;;;10068364;29;20037;-53
2022/09/14 13:51:12;;;;;;;13.35;4.07;;;21.60;66.10;;;;;;10075423;29;20045;-54
2022/09/14 13:56:26;;;;;;;20.30;4.15;;;21.60;66.90;;;;;;10103665;29;20033;-53
2022/09/14 14:01:28;;;;;;;28.55;5.60;;;21.60;65.90;;;;;;10114317;29;20073;-54
2022/09/14 14:06:37;;;;;;;24.40;5.32;;;21.60;65.40;;;;;;10113929;29;20029;-54
2022/09/14 14:11:44;;;;;;;18.97;4.73;;;21.60;66.00;;;;;;10129858;29;20043;-53
2022/09/14 14:17:20;;;;;;;20.17;4.13;;;21.70;66.70;;;;;;10110711;29;20388;-50
2022/09/14 14:22:33;;;;;;;21.27;4.93;;;21.70;66.80;;;;;;10112818;29;20081;-52
2022/09/14 14:27:37;;;;;;;16.77;4.40;;;21.60;66.60;;;;;;10122234;29;20032;-53
2022/09/14 14:32:38;;;;;;;13.50;5.25;;;21.60;66.60;;;;;;10138020;29;20029;-52
2022/09/14 14:37:39;;;;;;;14.77;4.07;;;21.60;66.60;;;;;;10125991;29;20412;-51
2022/09/14 14:42:41;;;;;;;13.32;3.70;;;21.60;66.60;;;;;;10125205;29;20025;-50
2022/09/14 14:47:41;;;;;;;11.60;3.70;;;21.60;66.60;;;;;;10125014;29;20076;-50
2022/09/14 14:52:42;;;;;;;11.93;3.67;;;21.60;66.40;;;;;;10125824;29;20382;-50
2022/09/14 14:57:43;;;;;;;13.15;3.10;;;21.60;66.30;;;;;;10123810;29;20055;-53
2022/09/14 15:02:44;;;;;;;11.48;4.03;;;21.60;66.30;;;;;;10109837;29;20557;-53
2022/09/14 15:07:46;;;;;;;9.65;3.38;;;21.60;66.20;;;;;;10126460;29;20040;-53
2022/09/14 15:12:47;;;;;;;7.18;3.40;;;21.60;66.20;;;;;;10126447;29;20101;-52
2022/09/14 15:17:47;;;;;;;7.30;3.45;;;21.60;66.10;;;;;;10124370;29;20051;-52
2022/09/14 15:22:48;;;;;;;10.10;2.88;;;21.60;66.10;;;;;;10125786;29;20111;-53
2022/09/14 15:27:49;;;;;;;6.75;2.53;;;21.60;66.00;;;;;;10126566;29;20396;-53
2022/09/14 15:32:50;;;;;;;10.27;2.42;;;21.60;65.90;;;;;;10120489;29;20037;-53
2022/09/14 15:37:50;;;;;;;6.82;2.55;;;21.60;65.90;;;;;;10126351;29;20033;-53
2022/09/14 15:42:51;;;;;;;6.53;2.38;;;21.60;65.90;;;;;;10125779;29;20060;-53
2022/09/14 15:47:52;;;;;;;10.48;2.40;;;21.60;65.90;;;;;;10125050;29;20048;-52
2022/09/14 15:52:53;;;;;;;7.20;2.05;;;21.60;65.90;;;;;;10123627;29;20039;-52
2022/09/14 15:57:53;;;;;;;5.78;2.05;;;21.60;65.80;;;;;;10125439;29;20195;-53
2022/09/14 16:02:54;;;;;;;3.75;1.80;;;21.60;65.80;;;;;;10124717;29;20053;-52
2022/09/14 16:07:56;;;;;;;4.15;1.65;;;21.60;65.80;;;;;;10125156;29;20072;-54
2022/09/14 16:12:57;;;;;;;4.78;2.03;;;21.50;65.70;;;;;;10123355;29;20400;-53
2022/09/14 16:17:57;;;;;;;4.18;2.10;;;21.50;65.80;;;;;;10123152;29;20127;-53
2022/09/14 16:22:58;;;;;;;7.25;2.00;;;21.50;65.70;;;;;;10132109;29;20094;-53
2022/09/14 16:27:59;;;;;;;6.93;2.08;;;21.50;65.70;;;;;;10124664;29;20433;-50
2022/09/14 16:32:59;;;;;;;12.57;2.33;;;21.60;65.70;;;;;;10123532;29;20120;-53
2022/09/14 16:38:00;;;;;;;14.57;2.55;;;21.70;66.20;;;;;;10123559;29;20123;-55
2022/09/14 16:43:01;;;;;;;12.00;1.98;;;21.90;67.70;;;;;;10123820;29;20631;-55
2022/09/14 16:48:01;;;;;;;10.35;2.50;;;21.90;67.90;;;;;;10107045;29;20559;-56
2022/09/14 16:53:02;;;;;;;11.52;2.97;;;21.90;68.30;;;;;;10108079;29;20195;-53
2022/09/14 16:58:03;;;;;;;14.60;2.35;;;21.90;68.00;;;;;;10122325;29;20094;-54
2022/09/14 17:03:03;;;;;;;14.88;2.88;;;21.90;67.70;;;;;;10125707;29;20454;-55
2022/09/14 17:08:04;;;;;;;10.88;2.10;;;21.90;67.70;;;;;;10129420;29;20116;-53
2022/09/14 17:13:05;;;;;;;14.10;3.20;;;21.90;67.70;;;;;;10123048;29;20107;-55
2022/09/14 17:18:05;;;;;;;12.57;3.20;;;21.90;67.70;;;;;;10120976;29;20072;-55
2022/09/14 17:23:06;;;;;;;11.98;2.95;;;21.80;68.10;;;;;;10127724;29;20112;-56
2022/09/14 17:28:07;;;;;;;15.10;3.97;;;21.90;69.20;;;;;;10131352;29;20033;-57
2022/09/14 17:33:08;;;;;;;8.93;2.75;;;21.90;68.70;;;;;;10113699;29;20115;-56
2022/09/14 17:38:09;;;;;;;13.73;2.78;;;21.80;68.80;;;;;;10130019;29;20084;-56
2022/09/14 17:43:10;;;;;;;11.75;2.70;;;21.80;68.70;;;;;;10113311;29;20119;-57
2022/09/14 17:48:11;;;;;;;13.00;2.85;;;21.70;68.60;;;;;;10129123;29;20048;-56
2022/09/14 17:53:12;;;;;;;12.90;3.92;;;21.70;68.30;;;;;;10129725;29;20120;-57
2022/09/14 17:58:13;;;;;;;19.52;4.57;;;21.60;68.20;;;;;;10130809;29;20770;-56
2022/09/14 18:03:14;;;;;;;13.68;3.85;;;21.60;68.20;;;;;;10131004;29;20025;-56
2022/09/14 18:08:14;;;;;;;20.52;3.63;;;21.60;68.20;;;;;;10127271;29;20025;-57
2022/09/14 18:13:15;;;;;;;8.48;2.83;;;21.60;68.30;;;;;;10129011;29;20064;-55
2022/09/14 18:18:16;;;;;;;13.82;3.55;;;21.60;68.30;;;;;;10124968;29;20040;-56
2022/09/14 18:23:17;;;;;;;10.85;3.03;;;21.60;68.30;;;;;;10128184;29;20107;-56
2022/09/14 18:28:18;;;;;;;6.40;2.45;;;21.60;68.20;;;;;;10128265;29;20055;-56
2022/09/14 18:33:19;;;;;;;9.95;2.53;;;21.60;68.20;;;;;;10127351;29;20089;-56
2022/09/14 18:38:19;;;;;;;9.05;2.67;;;21.60;68.70;;;;;;10128023;29;20115;-57
2022/09/14 18:43:21;;;;;;;7.63;2.45;;;21.60;68.20;;;;;;10127389;29;20119;-56
2022/09/14 18:48:22;;;;;;;9.70;3.40;;;21.60;68.00;;;;;;10125113;29;20045;-56
2022/09/14 18:53:22;;;;;;;6.68;2.42;;;21.60;67.90;;;;;;10116906;29;20064;-56
2022/09/14 18:58:23;;;;;;;9.27;3.15;;;21.60;67.80;;;;;;10119781;29;20247;-56
2022/09/14 19:03:24;;;;;;;7.47;2.08;;;21.60;67.70;;;;;;10124524;29;20539;-55
2022/09/14 19:08:26;;;;;;;12.27;2.33;;;21.60;67.80;;;;;;10105178;29;20119;-55
2022/09/14 19:13:27;;;;;;;5.68;2.13;;;21.60;67.80;;;;;;10123415;29;20037;-57
2022/09/14 19:18:28;;;;;;;7.85;2.72;;;21.60;67.60;;;;;;10110391;29;20032;-55
2022/09/14 19:23:29;;;;;;;7.97;1.98;;;21.60;67.60;;;;;;10113309;29;20056;-55
2022/09/14 19:28:30;;;;;;;7.65;1.88;;;21.60;67.50;;;;;;10127320;29;20666;-55
2022/09/14 19:33:31;;;;;;;5.50;2.83;;;21.60;67.60;;;;;;10103120;29;20104;-56
2022/09/14 19:38:32;;;;;;;5.78;1.65;;;21.60;67.50;;;;;;10124808;29;20097;-56
2022/09/14 19:43:33;;;;;;;7.10;2.20;;;21.50;67.30;;;;;;10109554;29;20040;-55
2022/09/14 19:48:35;;;;;;;6.47;1.50;;;21.60;67.40;;;;;;10105899;29;20411;-55
2022/09/14 19:53:36;;;;;;;4.78;1.92;;;21.50;67.30;;;;;;10103764;29;20039;-55
2022/09/14 19:58:41;;;;;;;4.15;1.63;;;21.60;67.20;;;;;;10102763;29;20480;-55
2022/09/14 20:03:43;;;;;;;7.35;1.20;;;21.60;67.10;;;;;;10108959;29;20412;-55
2022/09/14 20:08:46;;;;;;;6.07;1.83;;;21.60;67.00;;;;;;10110244;29;20028;-56
2022/09/14 20:13:47;;;;;;;4.90;1.55;;;21.60;66.90;;;;;;10125686;29;20065;-56
2022/09/14 20:18:49;;;;;;;3.53;2.17;;;21.60;66.80;;;;;;10138749;29;20564;-55
2022/09/14 20:23:55;;;;;;;4.20;1.40;;;21.50;66.70;;;;;;10124392;29;20480;-56
2022/09/14 20:29:00;;;;;;;3.75;1.33;;;21.50;66.80;;;;;;10108456;29;20071;-56
2022/09/14 20:34:01;;;;;;;5.05;2.20;;;21.50;66.70;;;;;;10125943;29;20036;-56
2022/09/14 20:39:02;;;;;;;3.28;1.60;;;21.50;66.60;;;;;;10126105;29;20037;-56
2022/09/14 20:44:03;;;;;;;2.67;1.23;;;21.50;66.60;;;;;;10108606;29;20048;-55
2022/09/14 20:49:10;;;;;;;3.45;1.17;;;21.50;66.50;;;;;;10108775;29;20500;-56
2022/09/14 20:54:14;;;;;;;3.30;1.45;;;21.50;66.40;;;;;;10108751;29;20033;-56
2022/09/14 20:59:16;;;;;;;3.40;1.60;;;21.50;66.30;;;;;;10108363;29;20869;-56
2022/09/14 21:04:20;;;;;;;2.13;1.30;;;21.60;66.20;;;;;;10124880;29;20072;-55
2022/09/14 21:09:24;;;;;;;2.65;1.30;;;21.50;66.20;;;;;;10125205;29;20045;-56
2022/09/14 21:14:25;;;;;;;2.97;1.20;;;21.50;66.10;;;;;;10124638;29;20392;-55
2022/09/14 21:19:27;;;;;;;3.00;1.52;;;21.50;66.10;;;;;;10125494;29;20075;-56
2022/09/14 21:24:29;;;;;;;3.30;1.60;;;21.50;66.10;;;;;;10124826;29;20025;-55
2022/09/14 21:29:30;;;;;;;4.70;1.63;;;21.50;66.00;;;;;;10125100;29;20063;-56
2022/09/14 21:34:31;;;;;;;3.83;1.35;;;21.50;65.90;;;;;;10124076;29;20036;-55
2022/09/14 21:39:32;;;;;;;4.57;1.75;;;21.50;65.90;;;;;;10124883;29;20033;-56
2022/09/14 21:44:36;;;;;;;2.15;1.25;;;21.50;65.90;;;;;;10124537;29;20036;-55
2022/09/14 21:49:37;;;;;;;3.33;1.77;;;21.50;65.90;;;;;;10107987;29;20029;-55
2022/09/14 21:54:39;;;;;;;2.83;1.27;;;21.50;65.90;;;;;;10107579;29;20342;-55
2022/09/14 21:59:40;;;;;;;3.10;1.25;;;21.50;65.80;;;;;;10107876;29;20052;-56
2022/09/14 22:04:40;;;;;;;5.72;1.98;;;21.50;65.80;;;;;;10124209;29;20127;-56
2022/09/14 22:09:42;;;;;;;2.15;1.10;;;21.50;65.80;;;;;;10111373;29;20119;-55
2022/09/14 22:14:42;;;;;;;2.33;1.35;;;21.50;65.70;;;;;;10107026;29;20480;-55
2022/09/14 22:19:43;;;;;;;3.45;1.65;;;21.50;65.70;;;;;;10143689;29;20147;-55
2022/09/14 22:24:44;;;;;;;2.97;1.30;;;21.40;65.60;;;;;;10130437;29;20041;-55
2022/09/14 22:29:45;;;;;;;2.38;1.70;;;21.40;65.70;;;;;;10130856;29;20090;-56
2022/09/14 22:34:46;;;;;;;4.43;1.38;;;21.40;65.70;;;;;;10129201;29;20044;-55
2022/09/14 22:39:47;;;;;;;2.42;1.30;;;21.40;65.60;;;;;;10125960;29;20044;-54
2022/09/14 22:44:48;;;;;;;2.30;1.27;;;21.40;65.50;;;;;;10112892;29;20033;-55
2022/09/14 22:49:48;;;;;;;2.05;1.23;;;21.40;65.50;;;;;;10112748;29;20119;-55
2022/09/14 22:54:49;;;;;;;2.38;1.20;;;21.40;65.50;;;;;;10112974;29;20087;-55
2022/09/14 22:59:50;;;;;;;2.75;1.33;;;21.40;65.50;;;;;;10112656;29;20131;-55
2022/09/14 23:04:51;;;;;;;1.75;1.20;;;21.40;65.50;;;;;;10129471;29;20075;-55
2022/09/14 23:09:51;;;;;;;3.28;1.50;;;21.40;65.40;;;;;;10129030;29;20150;-55
2022/09/14 23:14:52;;;;;;;3.20;1.38;;;21.40;65.30;;;;;;10106514;29;20064;-56
2022/09/14 23:19:53;;;;;;;2.90;1.60;;;21.40;65.40;;;;;;10128394;29;20037;-54
2022/09/14 23:24:53;;;;;;;4.50;1.35;;;21.40;65.30;;;;;;10129104;29;20020;-55
2022/09/14 23:29:54;;;;;;;2.22;1.13;;;21.40;65.20;;;;;;10128435;29;20124;-56
2022/09/14 23:34:55;;;;;;;2.95;1.40;;;21.30;65.10;;;;;;10128513;29;20036;-56
2022/09/14 23:39:55;;;;;;;2.25;1.15;;;21.30;65.20;;;;;;10127950;29;20124;-56
2022/09/14 23:44:56;;;;;;;1.73;1.10;;;21.40;65.30;;;;;;10111064;29;20111;-55
2022/09/14 23:49:57;;;;;;;1.88;1.10;;;21.40;65.30;;;;;;10127504;29;20328;-56
2022/09/14 23:54:57;;;;;;;2.25;1.10;;;21.30;65.30;;;;;;10126694;29;20080;-55
2022/09/14 23:59:58;;;;;;;2.80;1.30;;;21.30;65.20;;;;;;10126896;29;20071;-55
